Time,TemperatureF,DewpointF,PressureIn,WindDirection,WindDirectionDegrees,WindSpeedMPH,WindSpeedGustMPH,Humidity,HourlyPrecipIn,Conditions,Clouds,dailyrainin,SoftwareType,DateUTC
2013-04-11 00:00:00,33.0,26.0,-100.00,North,-999,-999.0,-999.0,77,-99.99,,,-99.99,,2013-04-11 06:00:00,
2013-04-11 00:32:00,33.0,26.0,-100.00,North,-999,-999.0,-999.0,77,-99.99,,,-99.99,,2013-04-11 06:32:00,
2013-04-11 00:42:00,33.0,26.0,-100.00,North,-999,-999.0,-999.0,77,-99.99,,,-99.99,,2013-04-11 06:42:00,
2013-04-11 00:52:00,33.0,26.0,-100.00,North,-999,-999.0,-999.0,77,-99.99,,,-99.99,,2013-04-11 06:52:00,
2013-04-11 01:00:00,33.0,30.0,-100.00,North,-999,-999.0,-999.0,89,-99.99,,,-99.99,,2013-04-11 07:00:00,
2013-04-11 01:32:00,33.0,30.0,-100.00,North,-999,-999.0,-999.0,89,-99.99,,,-99.99,,2013-04-11 07:32:00,
2013-04-11 01:43:00,33.0,30.0,-100.00,North,-999,-999.0,-999.0,89,-99.99,,,-99.99,,2013-04-11 07:43:00,
2013-04-11 01:52:00,33.0,30.0,-100.00,North,-999,-999.0,-999.0,89,-99.99,,,-99.99,,2013-04-11 07:52:00,
2013-04-11 02:00:00,27.0,27.0,-100.00,North,-999,-999.0,-999.0,99,-99.99,,,-99.99,,2013-04-11 08:00:00,
2013-04-11 02:22:00,27.0,27.0,-100.00,North,-999,-999.0,-999.0,99,-99.99,,,-99.99,,2013-04-11 08:22:00,
2013-04-11 02:33:00,27.0,27.0,-100.00,North,-999,-999.0,-999.0,99,-99.99,,,-99.99,,2013-04-11 08:33:00,
2013-04-11 02:42:00,27.0,27.0,-100.00,North,-999,-999.0,-999.0,99,-99.99,,,-99.99,,2013-04-11 08:42:00,
2013-04-11 02:52:00,27.0,27.0,-100.00,North,-999,-999.0,-999.0,99,-99.99,,,-99.99,,2013-04-11 08:52:00,
2013-04-11 03:00:00,28.0,28.0,-100.00,North,-999,-999.0,-999.0,100,-99.99,,,-99.99,,2013-04-11 09:00:00,
2013-04-11 03:33:00,28.0,28.0,-100.00,North,-999,-999.0,-999.0,100,-99.99,,,-99.99,,2013-04-11 09:33:00,
2013-04-11 03:43:00,28.0,28.0,-100.00,North,-999,-999.0,-999.0,100,-99.99,,,-99.99,,2013-04-11 09:43:00,
2013-04-11 03:53:00,28.0,28.0,-100.00,North,-999,-999.0,-999.0,100,-99.99,,,-99.99,,2013-04-11 09:53:00,
2013-04-11 04:00:00,29.0,29.0,-100.00,North,-999,-999.0,-999.0,100,-99.99,,,-99.99,,2013-04-11 10:00:00,
2013-04-11 04:32:00,29.0,29.0,-100.00,North,-999,-999.0,-999.0,100,-99.99,,,-99.99,,2013-04-11 10:32:00,
2013-04-11 04:42:00,29.0,29.0,-100.00,North,-999,-999.0,-999.0,100,-99.99,,,-99.99,,2013-04-11 10:42:00,
2013-04-11 04:52:00,29.0,29.0,-100.00,North,-999,-999.0,-999.0,100,-99.99,,,-99.99,,2013-04-11 10:52:00,
2013-04-11 05:00:00,29.0,29.0,-100.00,North,-999,-999.0,-999.0,100,-99.99,,,-99.99,,2013-04-11 11:00:00,
2013-04-11 05:32:00,29.0,29.0,-100.00,North,-999,-999.0,-999.0,100,-99.99,,,-99.99,,2013-04-11 11:32:00,
2013-04-11 05:43:00,29.0,29.0,-100.00,North,-999,-999.0,-999.0,100,-99.99,,,-99.99,,2013-04-11 11:43:00,
2013-04-11 05:52:00,29.0,29.0,-100.00,North,-999,-999.0,-999.0,100,-99.99,,,-99.99,,2013-04-11 11:52:00,
2013-04-11 06:00:00,28.0,28.0,-100.00,North,-999,-999.0,-999.0,100,-99.99,,,-99.99,,2013-04-11 12:00:00,
2013-04-11 06:32:00,28.0,28.0,-100.00,North,-999,-999.0,-999.0,100,-99.99,,,-99.99,,2013-04-11 12:32:00,
2013-04-11 06:43:00,28.0,28.0,-100.00,North,-999,-999.0,-999.0,100,-99.99,,,-99.99,,2013-04-11 12:43:00,
2013-04-11 06:52:00,28.0,28.0,-100.00,North,-999,-999.0,-999.0,100,-99.99,,,-99.99,,2013-04-11 12:52:00,
2013-04-11 07:00:00,29.0,29.0,-100.00,North,-999,-999.0,-999.0,100,-99.99,,,-99.99,,2013-04-11 13:00:00,
2013-04-11 07:32:00,29.0,29.0,-100.00,North,-999,-999.0,-999.0,100,-99.99,,,-99.99,,2013-04-11 13:32:00,
2013-04-11 07:43:00,29.0,29.0,-100.00,North,-999,-999.0,-999.0,100,-99.99,,,-99.99,,2013-04-11 13:43:00,
2013-04-11 07:53:00,29.0,29.0,-100.00,North,-999,-999.0,-999.0,100,-99.99,,,-99.99,,2013-04-11 13:53:00,
2013-04-11 08:00:00,28.0,28.0,-100.00,North,-999,-999.0,-999.0,98,-99.99,,,-99.99,,2013-04-11 14:00:00,
2013-04-11 08:33:00,28.0,28.0,-100.00,North,-999,-999.0,-999.0,98,-99.99,,,-99.99,,2013-04-11 14:33:00,
2013-04-11 08:42:00,28.0,28.0,-100.00,North,-999,-999.0,-999.0,98,-99.99,,,-99.99,,2013-04-11 14:42:00,
2013-04-11 08:52:00,28.0,28.0,-100.00,North,-999,-999.0,-999.0,98,-99.99,,,-99.99,,2013-04-11 14:52:00,
2013-04-11 11:00:00,31.0,28.0,-100.00,North,-999,-999.0,-999.0,88,-99.99,,,-99.99,,2013-04-11 17:00:00,
2013-04-11 11:33:00,31.0,28.0,-100.00,North,-999,-999.0,-999.0,88,-99.99,,,-99.99,,2013-04-11 17:33:00,
2013-04-11 11:43:00,31.0,28.0,-100.00,North,-999,-999.0,-999.0,88,-99.99,,,-99.99,,2013-04-11 17:43:00,
2013-04-11 11:52:00,31.0,28.0,-100.00,North,-999,-999.0,-999.0,88,-99.99,,,-99.99,,2013-04-11 17:52:00,
2013-04-11 12:00:00,32.0,28.0,-100.00,North,-999,-999.0,-999.0,83,-99.99,,,-99.99,,2013-04-11 18:00:00,
2013-04-11 12:33:00,32.0,28.0,-100.00,North,-999,-999.0,-999.0,83,-99.99,,,-99.99,,2013-04-11 18:33:00,
2013-04-11 12:43:00,32.0,28.0,-100.00,North,-999,-999.0,-999.0,83,-99.99,,,-99.99,,2013-04-11 18:43:00,
2013-04-11 12:53:00,32.0,28.0,-100.00,North,-999,-999.0,-999.0,83,-99.99,,,-99.99,,2013-04-11 18:53:00,
2013-04-11 13:00:00,35.0,25.0,-100.00,North,-999,-999.0,-999.0,67,-99.99,,,-99.99,,2013-04-11 19:00:00,
2013-04-11 13:33:00,35.0,25.0,-100.00,North,-999,-999.0,-999.0,67,-99.99,,,-99.99,,2013-04-11 19:33:00,
2013-04-11 13:43:00,35.0,25.0,-100.00,North,-999,-999.0,-999.0,67,-99.99,,,-99.99,,2013-04-11 19:43:00,
2013-04-11 13:53:00,35.0,25.0,-100.00,North,-999,-999.0,-999.0,67,-99.99,,,-99.99,,2013-04-11 19:53:00,
2013-04-11 14:00:00,35.0,24.0,-100.00,North,-999,-999.0,-999.0,65,-99.99,,,-99.99,,2013-04-11 20:00:00,
2013-04-11 14:33:00,35.0,24.0,-100.00,North,-999,-999.0,-999.0,65,-99.99,,,-99.99,,2013-04-11 20:33:00,
2013-04-11 14:43:00,35.0,24.0,-100.00,North,-999,-999.0,-999.0,65,-99.99,,,-99.99,,2013-04-11 20:43:00,
2013-04-11 14:52:00,35.0,24.0,-100.00,North,-999,-999.0,-999.0,65,-99.99,,,-99.99,,2013-04-11 20:52:00,
2013-04-11 15:00:00,33.0,28.0,-100.00,North,-999,-999.0,-999.0,80,-99.99,,,-99.99,,2013-04-11 21:00:00,
2013-04-11 15:33:00,33.0,28.0,-100.00,North,-999,-999.0,-999.0,80,-99.99,,,-99.99,,2013-04-11 21:33:00,
2013-04-11 15:43:00,33.0,28.0,-100.00,North,-999,-999.0,-999.0,80,-99.99,,,-99.99,,2013-04-11 21:43:00,
2013-04-11 15:53:00,33.0,28.0,-100.00,North,-999,-999.0,-999.0,80,-99.99,,,-99.99,,2013-04-11 21:53:00,
2013-04-11 16:00:00,37.0,24.0,-100.00,North,-999,-999.0,-999.0,58,-99.99,,,-99.99,,2013-04-11 22:00:00,
2013-04-11 16:33:00,37.0,24.0,-100.00,North,-999,-999.0,-999.0,58,-99.99,,,-99.99,,2013-04-11 22:33:00,
2013-04-11 16:44:00,37.0,24.0,-100.00,North,-999,-999.0,-999.0,58,-99.99,,,-99.99,,2013-04-11 22:44:00,
2013-04-11 16:53:00,37.0,24.0,-100.00,North,-999,-999.0,-999.0,58,-99.99,,,-99.99,,2013-04-11 22:53:00,
2013-04-11 17:00:00,34.0,21.0,-100.00,North,-999,-999.0,-999.0,58,-99.99,,,-99.99,,2013-04-11 23:00:00,
2013-04-11 17:33:00,34.0,21.0,-100.00,North,-999,-999.0,-999.0,58,-99.99,,,-99.99,,2013-04-11 23:33:00,
2013-04-11 17:43:00,34.0,21.0,-100.00,North,-999,-999.0,-999.0,58,-99.99,,,-99.99,,2013-04-11 23:43:00,
2013-04-11 17:53:00,34.0,21.0,-100.00,North,-999,-999.0,-999.0,58,-99.99,,,-99.99,,2013-04-11 23:53:00,
2013-04-11 18:00:00,32.0,27.0,-100.00,North,-999,-999.0,-999.0,78,-99.99,,,-99.99,,2013-04-12 00:00:00,
2013-04-11 18:33:00,32.0,27.0,-100.00,North,-999,-999.0,-999.0,78,-99.99,,,-99.99,,2013-04-12 00:33:00,
2013-04-11 18:43:00,32.0,27.0,-100.00,North,-999,-999.0,-999.0,78,-99.99,,,-99.99,,2013-04-12 00:43:00,
2013-04-11 18:53:00,32.0,27.0,-100.00,North,-999,-999.0,-999.0,78,-99.99,,,-99.99,,2013-04-12 00:53:00,
2013-04-11 19:00:00,29.0,24.0,-100.00,North,-999,-999.0,-999.0,81,-99.99,,,-99.99,,2013-04-12 01:00:00,
2013-04-11 19:33:00,29.0,24.0,-100.00,North,-999,-999.0,-999.0,81,-99.99,,,-99.99,,2013-04-12 01:33:00,
2013-04-11 19:42:00,29.0,24.0,-100.00,North,-999,-999.0,-999.0,81,-99.99,,,-99.99,,2013-04-12 01:42:00,
2013-04-11 19:52:00,29.0,24.0,-100.00,North,-999,-999.0,-999.0,81,-99.99,,,-99.99,,2013-04-12 01:52:00,
2013-04-11 20:00:00,28.0,23.0,-100.00,North,-999,-999.0,-999.0,81,-99.99,,,-99.99,,2013-04-12 02:00:00,
2013-04-11 20:32:00,28.0,23.0,-100.00,North,-999,-999.0,-999.0,81,-99.99,,,-99.99,,2013-04-12 02:32:00,
2013-04-11 20:42:00,28.0,23.0,-100.00,North,-999,-999.0,-999.0,81,-99.99,,,-99.99,,2013-04-12 02:42:00,
2013-04-11 20:52:00,28.0,23.0,-100.00,North,-999,-999.0,-999.0,81,-99.99,,,-99.99,,2013-04-12 02:52:00,
2013-04-11 21:00:00,28.0,23.0,-100.00,North,-999,-999.0,-999.0,80,-99.99,,,-99.99,,2013-04-12 03:00:00,
2013-04-11 21:33:00,28.0,23.0,-100.00,North,-999,-999.0,-999.0,80,-99.99,,,-99.99,,2013-04-12 03:33:00,
2013-04-11 21:43:00,28.0,23.0,-100.00,North,-999,-999.0,-999.0,80,-99.99,,,-99.99,,2013-04-12 03:43:00,
2013-04-11 21:53:00,28.0,23.0,-100.00,North,-999,-999.0,-999.0,80,-99.99,,,-99.99,,2013-04-12 03:53:00,
2013-04-11 22:00:00,27.0,22.0,-100.00,North,-999,-999.0,-999.0,82,-99.99,,,-99.99,,2013-04-12 04:00:00,
2013-04-11 22:33:00,27.0,22.0,-100.00,North,-999,-999.0,-999.0,82,-99.99,,,-99.99,,2013-04-12 04:33:00,
2013-04-11 22:43:00,27.0,22.0,-100.00,North,-999,-999.0,-999.0,82,-99.99,,,-99.99,,2013-04-12 04:43:00,
2013-04-11 22:52:00,27.0,22.0,-100.00,North,-999,-999.0,-999.0,82,-99.99,,,-99.99,,2013-04-12 04:52:00,
2013-04-11 23:00:00,27.0,23.0,-100.00,North,-999,-999.0,-999.0,83,-99.99,,,-99.99,,2013-04-12 05:00:00,
2013-04-11 23:32:00,27.0,23.0,-100.00,North,-999,-999.0,-999.0,83,-99.99,,,-99.99,,2013-04-12 05:32:00,
2013-04-11 23:42:00,27.0,23.0,-100.00,North,-999,-999.0,-999.0,83,-99.99,,,-99.99,,2013-04-12 05:42:00,
2013-04-11 23:52:00,27.0,23.0,-100.00,North,-999,-999.0,-999.0,83,-99.99,,,-99.99,,2013-04-12 05:52:00,